sensor_id;sensor_type;location;lat;lon;timestamp;pressure;altitude;pressure_sealevel;temperature;humidity
28000;BME280;15328;50.860;10.562;2023-05-23T00:04:13;96249.81;;;18.22;64.16
28000;BME280;15328;50.860;10.562;2023-05-23T00:09:16;96256.81;;;18.18;64.39
28000;BME280;15328;50.860;10.562;2023-05-23T00:14:16;96252.50;;;18.12;64.65
28000;BME280;15328;50.860;10.562;2023-05-23T00:19:17;96249.00;;;18.17;64.26
28000;BME280;15328;50.860;10.562;2023-05-23T00:24:18;96268.94;;;18.11;64.58
28000;BME280;15328;50.860;10.562;2023-05-23T00:29:19;96252.78;;;18.16;64.31
28000;BME280;15328;50.860;10.562;2023-05-23T00:34:19;96261.94;;;18.20;64.06
28000;BME280;15328;50.860;10.562;2023-05-23T00:39:20;96264.88;;;18.18;64.03
28000;BME280;15328;50.860;10.562;2023-05-23T00:44:20;96271.63;;;18.16;64.37
28000;BME280;15328;50.860;10.562;2023-05-23T00:49:21;96276.19;;;18.10;64.54
28000;BME280;15328;50.860;10.562;2023-05-23T00:54:26;96297.19;;;18.08;64.80
28000;BME280;15328;50.860;10.562;2023-05-23T00:59:29;96277.78;;;18.06;64.92
28000;BME280;15328;50.860;10.562;2023-05-23T01:04:29;96290.44;;;18.01;65.57
28000;BME280;15328;50.860;10.562;2023-05-23T01:09:33;96287.75;;;18.06;65.11
28000;BME280;15328;50.860;10.562;2023-05-23T01:14:41;96300.94;;;17.97;65.13
28000;BME280;15328;50.860;10.562;2023-05-23T01:20:08;96303.09;;;18.00;65.13
28000;BME280;15328;50.860;10.562;2023-05-23T01:25:47;96299.06;;;17.98;65.02
28000;BME280;15328;50.860;10.562;2023-05-23T01:30:59;96300.41;;;17.95;65.27
28000;BME280;15328;50.860;10.562;2023-05-23T01:36:01;96288.28;;;17.92;65.54
28000;BME280;15328;50.860;10.562;2023-05-23T01:41:02;96293.13;;;17.90;65.67
28000;BME280;15328;50.860;10.562;2023-05-23T01:46:03;96294.22;;;17.89;65.29
28000;BME280;15328;50.860;10.562;2023-05-23T01:51:05;96287.75;;;17.85;65.55
28000;BME280;15328;50.860;10.562;2023-05-23T01:56:07;96289.38;;;17.81;65.70
28000;BME280;15328;50.860;10.562;2023-05-23T02:01:08;96292.06;;;17.86;65.17
28000;BME280;15328;50.860;10.562;2023-05-23T02:06:09;96292.06;;;17.86;65.39
28000;BME280;15328;50.860;10.562;2023-05-23T02:11:09;96298.25;;;17.82;65.69
28000;BME280;15328;50.860;10.562;2023-05-23T02:16:10;96298.75;;;17.79;65.34
28000;BME280;15328;50.860;10.562;2023-05-23T02:21:10;96302.28;;;17.84;65.25
28000;BME280;15328;50.860;10.562;2023-05-23T02:26:11;96300.94;;;17.87;64.97
28000;BME280;15328;50.860;10.562;2023-05-23T02:31:11;96301.19;;;17.85;64.99
28000;BME280;15328;50.860;10.562;2023-05-23T02:36:11;96304.16;;;17.84;64.96
28000;BME280;15328;50.860;10.562;2023-05-23T02:41:11;96305.25;;;17.88;64.80
28000;BME280;15328;50.860;10.562;2023-05-23T02:46:12;96306.59;;;17.90;64.73
28000;BME280;15328;50.860;10.562;2023-05-23T02:51:12;96302.25;;;17.74;64.46
28000;BME280;15328;50.860;10.562;2023-05-23T02:56:13;96312.72;;;17.76;64.94
28000;BME280;15328;50.860;10.562;2023-05-23T03:01:15;96314.88;;;17.79;64.82
28000;BME280;15328;50.860;10.562;2023-05-23T03:06:15;96318.38;;;17.69;65.14
28000;BME280;15328;50.860;10.562;2023-05-23T03:11:16;96319.94;;;17.60;65.89
28000;BME280;15328;50.860;10.562;2023-05-23T03:16:16;96319.94;;;17.55;66.28
28000;BME280;15328;50.860;10.562;2023-05-23T03:21:16;96307.84;;;17.57;66.59
28000;BME280;15328;50.860;10.562;2023-05-23T03:26:17;96309.41;;;17.48;67.06
28000;BME280;15328;50.860;10.562;2023-05-23T03:31:18;96309.19;;;17.55;66.81
28000;BME280;15328;50.860;10.562;2023-05-23T03:36:18;96304.03;;;17.48;67.13
28000;BME280;15328;50.860;10.562;2023-05-23T03:41:18;96311.06;;;17.54;67.21
28000;BME280;15328;50.860;10.562;2023-05-23T03:46:19;96305.63;;;17.49;67.30
28000;BME280;15328;50.860;10.562;2023-05-23T03:51:19;96326.06;;;17.50;67.10
28000;BME280;15328;50.860;10.562;2023-05-23T03:56:19;96326.34;;;17.44;67.25
28000;BME280;15328;50.860;10.562;2023-05-23T04:01:20;96328.22;;;17.43;67.15
28000;BME280;15328;50.860;10.562;2023-05-23T04:06:20;96333.03;;;17.36;67.38
28000;BME280;15328;50.860;10.562;2023-05-23T04:11:22;96335.41;;;17.27;67.27
28000;BME280;15328;50.860;10.562;2023-05-23T04:16:23;96340.28;;;17.30;67.54
28000;BME280;15328;50.860;10.562;2023-05-23T04:21:24;96338.38;;;17.26;67.11
28000;BME280;15328;50.860;10.562;2023-05-23T04:26:25;96349.13;;;17.26;66.88
28000;BME280;15328;50.860;10.562;2023-05-23T04:31:25;96341.53;;;17.18;67.50
28000;BME280;15328;50.860;10.562;2023-05-23T04:36:26;96340.22;;;17.20;67.07
28000;BME280;15328;50.860;10.562;2023-05-23T04:41:26;96342.63;;;17.22;67.47
28000;BME280;15328;50.860;10.562;2023-05-23T04:46:27;96350.09;;;17.10;67.56
28000;BME280;15328;50.860;10.562;2023-05-23T04:51:27;96360.84;;;17.05;67.16
28000;BME280;15328;50.860;10.562;2023-05-23T04:56:28;96363.81;;;17.08;66.70
28000;BME280;15328;50.860;10.562;2023-05-23T05:01:28;96367.84;;;17.11;65.73
28000;BME280;15328;50.860;10.562;2023-05-23T05:06:29;96372.09;;;17.02;65.13
28000;BME280;15328;50.860;10.562;2023-05-23T05:11:30;96377.16;;;16.98;64.60
28000;BME280;15328;50.860;10.562;2023-05-23T05:16:30;96372.38;;;17.00;64.17
28000;BME280;15328;50.860;10.562;2023-05-23T05:21:30;96388.50;;;17.00;63.98
28000;BME280;15328;50.860;10.562;2023-05-23T05:26:31;96387.84;;;16.88;63.47
28000;BME280;15328;50.860;10.562;2023-05-23T05:31:31;96398.28;;;16.79;63.38
28000;BME280;15328;50.860;10.562;2023-05-23T05:36:32;96398.28;;;16.79;62.44
28000;BME280;15328;50.860;10.562;2023-05-23T05:41:32;96395.56;;;16.74;62.41
28000;BME280;15328;50.860;10.562;2023-05-23T05:46:32;96401.47;;;16.76;62.43
28000;BME280;15328;50.860;10.562;2023-05-23T05:51:33;96405.38;;;16.63;61.84
28000;BME280;15328;50.860;10.562;2023-05-23T05:56:33;96399.25;;;16.68;62.55
28000;BME280;15328;50.860;10.562;2023-05-23T06:01:33;96403.88;;;16.73;62.39
28000;BME280;15328;50.860;10.562;2023-05-23T06:06:34;96406.97;;;16.64;62.09
28000;BME280;15328;50.860;10.562;2023-05-23T06:11:34;96412.41;;;16.69;61.71
28000;BME280;15328;50.860;10.562;2023-05-23T06:16:38;96416.53;;;16.77;61.27
28000;BME280;15328;50.860;10.562;2023-05-23T06:21:38;96409.25;;;16.73;61.33
28000;BME280;15328;50.860;10.562;2023-05-23T06:26:38;96414.72;;;16.56;60.69
28000;BME280;15328;50.860;10.562;2023-05-23T06:31:39;96402.03;;;16.46;60.11
28000;BME280;15328;50.860;10.562;2023-05-23T06:36:39;96400.28;;;16.35;59.41
28000;BME280;15328;50.860;10.562;2023-05-23T06:41:41;96403.34;;;16.44;59.62
28000;BME280;15328;50.860;10.562;2023-05-23T06:46:44;96412.44;;;16.43;59.86
28000;BME280;15328;50.860;10.562;2023-05-23T06:51:44;96412.25;;;16.49;58.80
28000;BME280;15328;50.860;10.562;2023-05-23T06:56:44;96433.19;;;16.20;59.05
28000;BME280;15328;50.860;10.562;2023-05-23T07:01:45;96421.06;;;16.18;59.27
28000;BME280;15328;50.860;10.562;2023-05-23T07:06:45;96430.03;;;16.28;60.33
28000;BME280;15328;50.860;10.562;2023-05-23T07:11:46;96422.94;;;16.44;59.94
28000;BME280;15328;50.860;10.562;2023-05-23T07:16:47;96426.78;;;16.53;59.23
28000;BME280;15328;50.860;10.562;2023-05-23T07:21:47;96428.94;;;16.56;58.97
28000;BME280;15328;50.860;10.562;2023-05-23T07:26:47;96428.44;;;16.59;58.43
28000;BME280;15328;50.860;10.562;2023-05-23T07:31:48;96423.59;;;16.61;57.52
28000;BME280;15328;50.860;10.562;2023-05-23T07:36:48;96421.53;;;16.68;58.15
28000;BME280;15328;50.860;10.562;2023-05-23T07:41:49;96430.66;;;16.67;57.76
28000;BME280;15328;50.860;10.562;2023-05-23T07:46:49;96432.84;;;16.71;57.43
28000;BME280;15328;50.860;10.562;2023-05-23T07:51:50;96431.16;;;16.96;57.27
28000;BME280;15328;50.860;10.562;2023-05-23T07:56:54;96439.28;;;17.02;57.92
28000;BME280;15328;50.860;10.562;2023-05-23T08:01:54;96435.22;;;16.99;57.38
28000;BME280;15328;50.860;10.562;2023-05-23T08:06:55;96444.94;;;17.05;56.72
28000;BME280;15328;50.860;10.562;2023-05-23T08:11:55;96444.41;;;17.03;57.25
28000;BME280;15328;50.860;10.562;2023-05-23T08:16:59;96454.06;;;17.04;57.21
28000;BME280;15328;50.860;10.562;2023-05-23T08:22:06;96459.44;;;17.04;57.13
28000;BME280;15328;50.860;10.562;2023-05-23T08:27:07;96464.78;;;16.99;57.23
28000;BME280;15328;50.860;10.562;2023-05-23T08:32:08;96465.50;;;16.89;58.10
28000;BME280;15328;50.860;10.562;2023-05-23T08:37:08;96458.69;;;16.77;57.98
28000;BME280;15328;50.860;10.562;2023-05-23T08:42:09;96461.13;;;16.78;58.71
28000;BME280;15328;50.860;10.562;2023-05-23T08:47:10;96473.63;;;16.67;59.15
28000;BME280;15328;50.860;10.562;2023-05-23T08:52:17;96471.09;;;16.83;58.83
28000;BME280;15328;50.860;10.562;2023-05-23T08:57:21;96473.78;;;16.83;58.93
28000;BME280;15328;50.860;10.562;2023-05-23T09:02:22;96476.22;;;16.84;59.01
28000;BME280;15328;50.860;10.562;2023-05-23T09:07:31;96477.91;;;16.95;58.95
28000;BME280;15328;50.860;10.562;2023-05-23T09:12:32;96481.19;;;17.03;58.51
28000;BME280;15328;50.860;10.562;2023-05-23T09:17:32;96486.13;;;17.16;58.84
28000;BME280;15328;50.860;10.562;2023-05-23T09:22:33;96494.56;;;17.29;58.64
28000;BME280;15328;50.860;10.562;2023-05-23T09:27:34;96489.81;;;17.47;57.74
28000;BME280;15328;50.860;10.562;2023-05-23T09:32:34;96486.88;;;17.48;57.37
28000;BME280;15328;50.860;10.562;2023-05-23T09:37:39;96490.44;;;17.54;57.44
28000;BME280;15328;50.860;10.562;2023-05-23T09:42:47;96494.78;;;17.65;57.15
28000;BME280;15328;50.860;10.562;2023-05-23T09:47:53;96501.72;;;17.56;56.58
28000;BME280;15328;50.860;10.562;2023-05-23T09:52:54;96497.31;;;17.40;58.29
28000;BME280;15328;50.860;10.562;2023-05-23T09:57:54;96503.19;;;17.32;59.18
28000;BME280;15328;50.860;10.562;2023-05-23T10:03:09;96505.63;;;17.33;59.63
28000;BME280;15328;50.860;10.562;2023-05-23T10:13:19;96513.09;;;17.26;60.27
28000;BME280;15328;50.860;10.562;2023-05-23T10:18:24;96513.38;;;17.29;58.98
28000;BME280;15328;50.860;10.562;2023-05-23T10:23:26;96512.72;;;17.12;60.01
28000;BME280;15328;50.860;10.562;2023-05-23T10:28:27;96514.28;;;17.08;59.60
28000;BME280;15328;50.860;10.562;2023-05-23T10:33:33;96516.88;;;16.98;59.98
28000;BME280;15328;50.860;10.562;2023-05-23T10:48:43;96532.16;;;16.92;59.86
28000;BME280;15328;50.860;10.562;2023-05-23T10:53:44;96523.72;;;16.79;60.25
28000;BME280;15328;50.860;10.562;2023-05-23T10:58:45;96535.31;;;16.84;60.08
28000;BME280;15328;50.860;10.562;2023-05-23T11:08:46;96543.84;;;16.76;59.57
28000;BME280;15328;50.860;10.562;2023-05-23T11:13:53;96531.09;;;16.66;60.68
28000;BME280;15328;50.860;10.562;2023-05-23T11:24:17;96548.09;;;16.50;60.67
28000;BME280;15328;50.860;10.562;2023-05-23T11:29:17;96551.28;;;16.47;61.32
28000;BME280;15328;50.860;10.562;2023-05-23T11:34:19;96561.47;;;16.45;62.06
28000;BME280;15328;50.860;10.562;2023-05-23T11:39:19;96563.84;;;16.42;62.24
28000;BME280;15328;50.860;10.562;2023-05-23T11:44:20;96558.34;;;16.31;61.79
28000;BME280;15328;50.860;10.562;2023-05-23T11:49:20;96572.53;;;16.27;61.55
28000;BME280;15328;50.860;10.562;2023-05-23T11:54:22;96578.34;;;16.19;61.38
28000;BME280;15328;50.860;10.562;2023-05-23T11:59:24;96574.91;;;16.01;62.63
28000;BME280;15328;50.860;10.562;2023-05-23T12:04:25;96585.69;;;16.06;62.35
28000;BME280;15328;50.860;10.562;2023-05-23T12:09:26;96594.03;;;16.10;62.73
28000;BME280;15328;50.860;10.562;2023-05-23T12:14:27;96595.50;;;16.18;62.05
28000;BME280;15328;50.860;10.562;2023-05-23T12:19:28;96603.34;;;16.02;61.91
28000;BME280;15328;50.860;10.562;2023-05-23T12:24:28;96603.03;;;15.99;63.17
28000;BME280;15328;50.860;10.562;2023-05-23T12:29:33;96617.38;;;15.71;63.81
28000;BME280;15328;50.860;10.562;2023-05-23T12:34:40;96618.28;;;15.60;64.59
28000;BME280;15328;50.860;10.562;2023-05-23T12:39:42;96632.00;;;15.46;64.39
28000;BME280;15328;50.860;10.562;2023-05-23T12:44:43;96641.06;;;15.29;64.73
28000;BME280;15328;50.860;10.562;2023-05-23T12:49:45;96641.53;;;15.09;65.34
28000;BME280;15328;50.860;10.562;2023-05-23T12:54:45;96643.00;;;15.17;65.47
28000;BME280;15328;50.860;10.562;2023-05-23T12:59:46;96646.78;;;15.04;65.73
28000;BME280;15328;50.860;10.562;2023-05-23T13:04:46;96646.66;;;15.10;65.64
28000;BME280;15328;50.860;10.562;2023-05-23T13:09:47;96635.63;;;15.07;66.31
28000;BME280;15328;50.860;10.562;2023-05-23T13:14:48;96641.53;;;15.09;65.64
28000;BME280;15328;50.860;10.562;2023-05-23T13:19:48;96652.25;;;15.09;65.27
28000;BME280;15328;50.860;10.562;2023-05-23T13:24:49;96655.09;;;15.19;65.19
28000;BME280;15328;50.860;10.562;2023-05-23T13:29:49;96659.84;;;15.00;64.46
28000;BME280;15328;50.860;10.562;2023-05-23T13:34:50;96652.53;;;14.96;64.91
28000;BME280;15328;50.860;10.562;2023-05-23T13:39:50;96660.66;;;15.01;65.04
28000;BME280;15328;50.860;10.562;2023-05-23T13:44:50;96652.88;;;14.99;64.89
28000;BME280;15328;50.860;10.562;2023-05-23T13:49:51;96655.69;;;14.93;64.60
28000;BME280;15328;50.860;10.562;2023-05-23T13:54:51;96667.75;;;15.07;64.64
28000;BME280;15328;50.860;10.562;2023-05-23T13:59:52;96670.44;;;15.07;64.51
28000;BME280;15328;50.860;10.562;2023-05-23T14:04:52;96674.06;;;15.01;63.62
28000;BME280;15328;50.860;10.562;2023-05-23T14:09:52;96678.19;;;14.92;64.44
28000;BME280;15328;50.860;10.562;2023-05-23T14:14:53;96684.03;;;14.89;64.70
28000;BME280;15328;50.860;10.562;2023-05-23T14:19:53;96679.13;;;14.86;64.89
28000;BME280;15328;50.860;10.562;2023-05-23T14:24:53;96682.16;;;14.89;65.31
28000;BME280;15328;50.860;10.562;2023-05-23T14:29:54;96686.44;;;14.90;65.16
28000;BME280;15328;50.860;10.562;2023-05-23T14:34:54;96688.22;;;14.84;65.06
28000;BME280;15328;50.860;10.562;2023-05-23T14:39:56;96691.00;;;14.90;65.13
28000;BME280;15328;50.860;10.562;2023-05-23T14:44:56;96676.66;;;14.96;64.90
28000;BME280;15328;50.860;10.562;2023-05-23T14:49:56;96686.88;;;14.99;64.46
28000;BME280;15328;50.860;10.562;2023-05-23T14:54:57;96693.94;;;15.05;64.37
28000;BME280;15328;50.860;10.562;2023-05-23T14:59:57;96704.56;;;15.00;63.80
28000;BME280;15328;50.860;10.562;2023-05-23T15:04:58;96687.44;;;15.01;63.65
28000;BME280;15328;50.860;10.562;2023-05-23T15:09:58;96702.72;;;15.00;63.62
28000;BME280;15328;50.860;10.562;2023-05-23T15:14:59;96695.94;;;14.81;63.48
28000;BME280;15328;50.860;10.562;2023-05-23T15:20:03;96704.16;;;14.91;63.06
28000;BME280;15328;50.860;10.562;2023-05-23T15:25:04;96695.00;;;14.75;62.59
28000;BME280;15328;50.860;10.562;2023-05-23T15:30:05;96708.63;;;14.74;63.13
28000;BME280;15328;50.860;10.562;2023-05-23T15:35:06;96696.63;;;14.76;63.04
28000;BME280;15328;50.860;10.562;2023-05-23T15:40:07;96702.75;;;14.89;62.52
28000;BME280;15328;50.860;10.562;2023-05-23T15:45:08;96706.63;;;14.81;61.80
28000;BME280;15328;50.860;10.562;2023-05-23T15:50:09;96705.28;;;14.67;61.16
28000;BME280;15328;50.860;10.562;2023-05-23T15:55:09;96719.59;;;14.37;62.25
28000;BME280;15328;50.860;10.562;2023-05-23T16:00:10;96732.06;;;14.32;61.94
28000;BME280;15328;50.860;10.562;2023-05-23T16:05:11;96731.81;;;14.21;61.22
28000;BME280;15328;50.860;10.562;2023-05-23T16:10:11;96734.63;;;14.03;61.14
28000;BME280;15328;50.860;10.562;2023-05-23T16:15:12;96741.84;;;14.03;60.73
28000;BME280;15328;50.860;10.562;2023-05-23T16:20:13;96745.91;;;14.05;60.49
28000;BME280;15328;50.860;10.562;2023-05-23T16:25:14;96737.63;;;14.18;60.88
28000;BME280;15328;50.860;10.562;2023-05-23T16:30:14;96744.63;;;14.31;60.44
28000;BME280;15328;50.860;10.562;2023-05-23T16:35:15;96745.78;;;14.35;59.42
28000;BME280;15328;50.860;10.562;2023-05-23T16:40:15;96739.72;;;14.40;59.80
28000;BME280;15328;50.860;10.562;2023-05-23T16:45:15;96743.47;;;14.27;58.96
28000;BME280;15328;50.860;10.562;2023-05-23T16:50:16;96743.00;;;14.18;59.65
28000;BME280;15328;50.860;10.562;2023-05-23T16:55:16;96751.59;;;14.20;59.70
28000;BME280;15328;50.860;10.562;2023-05-23T17:00:17;96757.28;;;14.24;58.78
28000;BME280;15328;50.860;10.562;2023-05-23T17:05:19;96754.28;;;14.09;57.98
28000;BME280;15328;50.860;10.562;2023-05-23T17:10:20;96753.69;;;14.07;58.14
28000;BME280;15328;50.860;10.562;2023-05-23T17:15:23;96747.78;;;14.05;58.90
28000;BME280;15328;50.860;10.562;2023-05-23T17:20:23;96751.47;;;14.15;57.35
28000;BME280;15328;50.860;10.562;2023-05-23T17:25:26;96759.94;;;13.89;57.46
28000;BME280;15328;50.860;10.562;2023-05-23T17:30:26;96763.31;;;13.84;56.91
28000;BME280;15328;50.860;10.562;2023-05-23T17:35:27;96760.66;;;13.84;56.73
28000;BME280;15328;50.860;10.562;2023-05-23T17:40:27;96772.63;;;13.82;56.62
28000;BME280;15328;50.860;10.562;2023-05-23T17:45:28;96753.09;;;13.81;56.44
28000;BME280;15328;50.860;10.562;2023-05-23T17:50:28;96754.91;;;13.69;56.39
28000;BME280;15328;50.860;10.562;2023-05-23T17:55:29;96765.53;;;13.76;56.67
28000;BME280;15328;50.860;10.562;2023-05-23T18:00:29;96775.53;;;13.80;56.70
28000;BME280;15328;50.860;10.562;2023-05-23T18:05:30;96777.50;;;13.85;56.80
28000;BME280;15328;50.860;10.562;2023-05-23T18:10:30;96781.22;;;13.84;57.20
28000;BME280;15328;50.860;10.562;2023-05-23T18:15:31;96777.03;;;13.88;56.46
28000;BME280;15328;50.860;10.562;2023-05-23T18:20:31;96780.66;;;13.93;55.95
28000;BME280;15328;50.860;10.562;2023-05-23T18:25:32;96784.03;;;13.89;56.51
28000;BME280;15328;50.860;10.562;2023-05-23T18:30:32;96787.03;;;13.81;55.96
28000;BME280;15328;50.860;10.562;2023-05-23T18:35:32;96785.75;;;13.72;56.28
28000;BME280;15328;50.860;10.562;2023-05-23T18:40:33;96782.09;;;13.54;56.60
28000;BME280;15328;50.860;10.562;2023-05-23T18:45:33;96790.28;;;13.41;57.40
28000;BME280;15328;50.860;10.562;2023-05-23T18:50:33;96793.16;;;13.40;57.32
28000;BME280;15328;50.860;10.562;2023-05-23T18:55:35;96797.31;;;13.24;58.08
28000;BME280;15328;50.860;10.562;2023-05-23T19:00:35;96812.41;;;13.12;58.40
28000;BME280;15328;50.860;10.562;2023-05-23T19:05:36;96811.69;;;13.05;57.80
28000;BME280;15328;50.860;10.562;2023-05-23T19:10:36;96819.28;;;12.89;57.81
28000;BME280;15328;50.860;10.562;2023-05-23T19:15:36;96822.34;;;12.86;57.95
28000;BME280;15328;50.860;10.562;2023-05-23T19:20:37;96827.91;;;12.85;57.39
28000;BME280;15328;50.860;10.562;2023-05-23T19:25:38;96838.22;;;12.81;57.54
28000;BME280;15328;50.860;10.562;2023-05-23T19:30:38;96832.38;;;12.73;57.55
28000;BME280;15328;50.860;10.562;2023-05-23T19:35:39;96837.72;;;12.73;57.42
28000;BME280;15328;50.860;10.562;2023-05-23T19:40:40;96839.72;;;12.77;57.51
28000;BME280;15328;50.860;10.562;2023-05-23T19:45:40;96848.84;;;12.69;58.29
28000;BME280;15328;50.860;10.562;2023-05-23T19:50:40;96852.44;;;12.57;58.42
28000;BME280;15328;50.860;10.562;2023-05-23T19:55:42;96849.31;;;12.60;58.90
28000;BME280;15328;50.860;10.562;2023-05-23T20:00:42;96854.06;;;12.58;58.93
28000;BME280;15328;50.860;10.562;2023-05-23T20:05:43;96867.63;;;12.56;58.99
28000;BME280;15328;50.860;10.562;2023-05-23T20:10:43;96870.38;;;12.50;58.89
28000;BME280;15328;50.860;10.562;2023-05-23T20:15:44;96862.38;;;12.50;59.09
28000;BME280;15328;50.860;10.562;2023-05-23T20:20:44;96875.72;;;12.50;58.34
28000;BME280;15328;50.860;10.562;2023-05-23T20:25:44;96878.31;;;12.56;58.18
28000;BME280;15328;50.860;10.562;2023-05-23T20:30:45;96892.59;;;12.44;58.70
28000;BME280;15328;50.860;10.562;2023-05-23T20:35:45;96887.91;;;12.39;58.62
28000;BME280;15328;50.860;10.562;2023-05-23T20:40:47;96880.22;;;12.24;58.90
28000;BME280;15328;50.860;10.562;2023-05-23T20:45:48;96884.53;;;12.25;59.24
28000;BME280;15328;50.860;10.562;2023-05-23T20:50:48;96879.03;;;12.20;nan
28000;BME280;15328;50.860;10.562;2023-05-23T20:55:50;96884.41;;;12.14;59.12
28000;BME280;15328;50.860;10.562;2023-05-23T21:00:51;96887.75;;;12.09;58.92
28000;BME280;15328;50.860;10.562;2023-05-23T21:05:51;96894.72;;;12.03;59.08
28000;BME280;15328;50.860;10.562;2023-05-23T21:10:51;96891.94;;;11.92;58.64
28000;BME280;15328;50.860;10.562;2023-05-23T21:15:52;96905.75;;;11.75;58.57
28000;BME280;15328;50.860;10.562;2023-05-23T21:20:52;96913.22;;;11.60;58.82
28000;BME280;15328;50.860;10.562;2023-05-23T21:25:52;96907.72;;;11.49;59.15
28000;BME280;15328;50.860;10.562;2023-05-23T21:30:53;96919.63;;;11.46;59.29
28000;BME280;15328;50.860;10.562;2023-05-23T21:35:53;96907.16;;;11.40;58.94
28000;BME280;15328;50.860;10.562;2023-05-23T21:40:54;96918.91;;;11.26;58.92
28000;BME280;15328;50.860;10.562;2023-05-23T21:45:54;96915.44;;;11.12;58.79
28000;BME280;15328;50.860;10.562;2023-05-23T21:50:54;96916.50;;;10.98;59.18
28000;BME280;15328;50.860;10.562;2023-05-23T21:55:55;96908.16;;;10.81;59.50
28000;BME280;15328;50.860;10.562;2023-05-23T22:00:55;96921.44;;;10.68;59.40
28000;BME280;15328;50.860;10.562;2023-05-23T22:05:55;96922.28;;;10.55;60.42
28000;BME280;15328;50.860;10.562;2023-05-23T22:10:56;96925.16;;;10.53;60.24
28000;BME280;15328;50.860;10.562;2023-05-23T22:15:56;96931.72;;;10.51;60.13
28000;BME280;15328;50.860;10.562;2023-05-23T22:20:57;96925.38;;;10.45;60.27
28000;BME280;15328;50.860;10.562;2023-05-23T22:25:57;96922.91;;;10.50;59.87
28000;BME280;15328;50.860;10.562;2023-05-23T22:30:57;96933.78;;;10.42;60.17
28000;BME280;15328;50.860;10.562;2023-05-23T22:35:58;96929.66;;;10.40;60.21
28000;BME280;15328;50.860;10.562;2023-05-23T22:40:58;96922.69;;;10.32;60.71
28000;BME280;15328;50.860;10.562;2023-05-23T22:45:59;96926.78;;;10.35;60.95
28000;BME280;15328;50.860;10.562;2023-05-23T22:51:00;96928.81;;;10.39;61.15
28000;BME280;15328;50.860;10.562;2023-05-23T22:56:01;96928.66;;;10.47;60.92
28000;BME280;15328;50.860;10.562;2023-05-23T23:01:01;96920.66;;;10.61;61.55
28000;BME280;15328;50.860;10.562;2023-05-23T23:06:02;96917.38;;;10.72;60.87
28000;BME280;15328;50.860;10.562;2023-05-23T23:11:05;96920.03;;;10.78;60.69
28000;BME280;15328;50.860;10.562;2023-05-23T23:16:05;96930.06;;;10.76;59.88
28000;BME280;15328;50.860;10.562;2023-05-23T23:21:07;96928.59;;;10.87;60.06
28000;BME280;15328;50.860;10.562;2023-05-23T23:26:07;96924.72;;;10.96;59.27
28000;BME280;15328;50.860;10.562;2023-05-23T23:31:08;96921.41;;;11.07;59.33
28000;BME280;15328;50.860;10.562;2023-05-23T23:36:08;96924.28;;;11.06;58.63
28000;BME280;15328;50.860;10.562;2023-05-23T23:41:09;96927.97;;;11.05;58.88
28000;BME280;15328;50.860;10.562;2023-05-23T23:46:09;96925.53;;;10.97;58.34
28000;BME280;15328;50.860;10.562;2023-05-23T23:51:10;96925.97;;;10.80;59.07
28000;BME280;15328;50.860;10.562;2023-05-23T23:56:11;96932.09;;;10.81;59.70
